Terminal Aerodrome Forecast
Issued by NWS

Current Version | Previous Version | Graphics & Text | Print | Product List | Glossary On
Versions: 1 2 3 4 5 6 7 8 9 10 11 12 13 14 15 16 17 18 19 20 21
414
FTUS41 KILN 252028 AAA
TAFLCK
TAF AMD
KLCK 252028Z 2520/2618 27008KT P6SM -SHRA OVC025
      TEMPO 2520/2523 VRB08G20KT 2SM -TSRA BR OVC025CB
     FM260300 28008KT P6SM OVC015
     FM261100 27008KT P6SM BKN025
     FM261600 27008KT P6SM SCT025=

USA.gov is the U.S. government's official web portal to all federal, state and local government web resources and services.